sensor_id;sensor_type;location;lat;lon;timestamp;P1;durP1;ratioP1;P2;durP2;ratioP2
25553;SDS011;13446;50.926;5.332;2024-01-30T00:02:17;16.45;;;8.95;;
25553;SDS011;13446;50.926;5.332;2024-01-30T00:04:43;15.57;;;9.10;;
25553;SDS011;13446;50.926;5.332;2024-01-30T00:07:08;16.52;;;9.32;;
25553;SDS011;13446;50.926;5.332;2024-01-30T00:09:36;15.43;;;8.88;;
25553;SDS011;13446;50.926;5.332;2024-01-30T00:12:04;12.93;;;8.50;;
25553;SDS011;13446;50.926;5.332;2024-01-30T00:14:30;13.63;;;8.25;;
25553;SDS011;13446;50.926;5.332;2024-01-30T00:16:55;14.70;;;8.57;;
25553;SDS011;13446;50.926;5.332;2024-01-30T00:19:21;14.40;;;8.20;;
25553;SDS011;13446;50.926;5.332;2024-01-30T00:21:47;14.50;;;8.30;;
25553;SDS011;13446;50.926;5.332;2024-01-30T00:24:13;12.02;;;7.68;;
25553;SDS011;13446;50.926;5.332;2024-01-30T00:26:39;11.98;;;8.07;;
25553;SDS011;13446;50.926;5.332;2024-01-30T00:29:06;13.70;;;7.47;;
25553;SDS011;13446;50.926;5.332;2024-01-30T00:31:32;13.43;;;7.97;;
25553;SDS011;13446;50.926;5.332;2024-01-30T00:33:57;13.50;;;7.95;;
25553;SDS011;13446;50.926;5.332;2024-01-30T00:36:23;14.07;;;7.93;;
25553;SDS011;13446;50.926;5.332;2024-01-30T00:38:49;15.45;;;8.02;;
25553;SDS011;13446;50.926;5.332;2024-01-30T00:41:15;13.18;;;8.05;;
25553;SDS011;13446;50.926;5.332;2024-01-30T00:43:43;13.88;;;8.52;;
25553;SDS011;13446;50.926;5.332;2024-01-30T00:46:08;12.95;;;7.32;;
25553;SDS011;13446;50.926;5.332;2024-01-30T00:48:34;14.02;;;7.35;;
25553;SDS011;13446;50.926;5.332;2024-01-30T00:51:00;13.48;;;7.53;;
25553;SDS011;13446;50.926;5.332;2024-01-30T00:53:26;14.85;;;7.60;;
25553;SDS011;13446;50.926;5.332;2024-01-30T00:55:51;11.13;;;7.47;;
25553;SDS011;13446;50.926;5.332;2024-01-30T00:58:17;11.27;;;7.43;;
25553;SDS011;13446;50.926;5.332;2024-01-30T01:00:44;11.77;;;7.43;;
25553;SDS011;13446;50.926;5.332;2024-01-30T01:03:10;15.65;;;8.23;;
25553;SDS011;13446;50.926;5.332;2024-01-30T01:05:36;12.77;;;7.68;;
25553;SDS011;13446;50.926;5.332;2024-01-30T01:08:01;15.15;;;7.10;;
25553;SDS011;13446;50.926;5.332;2024-01-30T01:10:27;13.23;;;7.88;;
25553;SDS011;13446;50.926;5.332;2024-01-30T01:12:53;11.50;;;7.53;;
25553;SDS011;13446;50.926;5.332;2024-01-30T01:15:19;14.45;;;7.60;;
25553;SDS011;13446;50.926;5.332;2024-01-30T01:17:45;12.27;;;7.15;;
25553;SDS011;13446;50.926;5.332;2024-01-30T01:20:11;16.33;;;8.32;;
25553;SDS011;13446;50.926;5.332;2024-01-30T01:22:37;11.38;;;7.07;;
25553;SDS011;13446;50.926;5.332;2024-01-30T01:25:04;15.20;;;7.80;;
25553;SDS011;13446;50.926;5.332;2024-01-30T01:27:33;15.00;;;7.50;;
25553;SDS011;13446;50.926;5.332;2024-01-30T01:29:59;11.25;;;6.95;;
25553;SDS011;13446;50.926;5.332;2024-01-30T01:32:25;12.63;;;7.82;;
25553;SDS011;13446;50.926;5.332;2024-01-30T01:34:51;12.95;;;6.80;;
25553;SDS011;13446;50.926;5.332;2024-01-30T01:37:17;11.70;;;6.95;;
25553;SDS011;13446;50.926;5.332;2024-01-30T01:39:46;11.60;;;6.93;;
25553;SDS011;13446;50.926;5.332;2024-01-30T01:42:11;11.55;;;6.90;;
25553;SDS011;13446;50.926;5.332;2024-01-30T01:44:37;11.27;;;6.97;;
25553;SDS011;13446;50.926;5.332;2024-01-30T01:47:04;11.02;;;6.95;;
25553;SDS011;13446;50.926;5.332;2024-01-30T01:49:30;10.32;;;7.00;;
25553;SDS011;13446;50.926;5.332;2024-01-30T01:51:56;11.75;;;6.95;;
25553;SDS011;13446;50.926;5.332;2024-01-30T01:54:24;9.57;;;7.10;;
25553;SDS011;13446;50.926;5.332;2024-01-30T01:56:51;10.95;;;7.28;;
25553;SDS011;13446;50.926;5.332;2024-01-30T01:59:18;13.27;;;6.95;;
25553;SDS011;13446;50.926;5.332;2024-01-30T02:01:45;13.38;;;7.57;;
25553;SDS011;13446;50.926;5.332;2024-01-30T02:04:14;11.98;;;6.90;;
25553;SDS011;13446;50.926;5.332;2024-01-30T02:06:40;11.48;;;6.13;;
25553;SDS011;13446;50.926;5.332;2024-01-30T02:09:07;12.55;;;7.38;;
25553;SDS011;13446;50.926;5.332;2024-01-30T02:11:34;11.95;;;6.75;;
25553;SDS011;13446;50.926;5.332;2024-01-30T02:14:03;12.90;;;6.85;;
25553;SDS011;13446;50.926;5.332;2024-01-30T02:16:29;12.80;;;6.82;;
25553;SDS011;13446;50.926;5.332;2024-01-30T02:18:55;14.65;;;6.43;;
25553;SDS011;13446;50.926;5.332;2024-01-30T02:21:20;12.05;;;6.80;;
25553;SDS011;13446;50.926;5.332;2024-01-30T02:23:46;11.23;;;6.45;;
25553;SDS011;13446;50.926;5.332;2024-01-30T02:26:13;11.13;;;6.57;;
25553;SDS011;13446;50.926;5.332;2024-01-30T02:28:40;10.20;;;6.28;;
25553;SDS011;13446;50.926;5.332;2024-01-30T02:31:06;12.77;;;6.15;;
25553;SDS011;13446;50.926;5.332;2024-01-30T02:33:32;13.25;;;6.43;;
25553;SDS011;13446;50.926;5.332;2024-01-30T02:35:57;9.35;;;6.10;;
25553;SDS011;13446;50.926;5.332;2024-01-30T02:38:24;11.45;;;5.78;;
25553;SDS011;13446;50.926;5.332;2024-01-30T02:40:51;15.25;;;6.38;;
25553;SDS011;13446;50.926;5.332;2024-01-30T02:43:17;11.38;;;5.97;;
25553;SDS011;13446;50.926;5.332;2024-01-30T02:45:43;8.57;;;5.75;;
25553;SDS011;13446;50.926;5.332;2024-01-30T02:48:09;10.45;;;6.20;;
25553;SDS011;13446;50.926;5.332;2024-01-30T02:50:34;10.30;;;6.20;;
25553;SDS011;13446;50.926;5.332;2024-01-30T02:53:00;10.05;;;5.85;;
25553;SDS011;13446;50.926;5.332;2024-01-30T02:55:26;13.18;;;5.60;;
25553;SDS011;13446;50.926;5.332;2024-01-30T02:57:52;8.43;;;5.80;;
25553;SDS011;13446;50.926;5.332;2024-01-30T03:00:18;12.90;;;6.60;;
25553;SDS011;13446;50.926;5.332;2024-01-30T03:02:44;9.48;;;5.95;;
25553;SDS011;13446;50.926;5.332;2024-01-30T03:05:10;10.90;;;5.80;;
25553;SDS011;13446;50.926;5.332;2024-01-30T03:07:36;10.38;;;6.65;;
25553;SDS011;13446;50.926;5.332;2024-01-30T03:10:10;9.90;;;5.63;;
25553;SDS011;13446;50.926;5.332;2024-01-30T03:12:36;8.65;;;5.53;;
25553;SDS011;13446;50.926;5.332;2024-01-30T03:15:02;8.30;;;5.55;;
25553;SDS011;13446;50.926;5.332;2024-01-30T03:17:27;12.45;;;5.63;;
25553;SDS011;13446;50.926;5.332;2024-01-30T03:19:53;13.38;;;6.40;;
25553;SDS011;13446;50.926;5.332;2024-01-30T03:22:20;8.98;;;6.20;;
25553;SDS011;13446;50.926;5.332;2024-01-30T03:24:47;8.05;;;5.65;;
25553;SDS011;13446;50.926;5.332;2024-01-30T03:27:14;10.38;;;5.78;;
25553;SDS011;13446;50.926;5.332;2024-01-30T03:29:40;8.90;;;5.68;;
25553;SDS011;13446;50.926;5.332;2024-01-30T03:32:05;8.02;;;5.45;;
25553;SDS011;13446;50.926;5.332;2024-01-30T03:34:31;11.70;;;6.30;;
25553;SDS011;13446;50.926;5.332;2024-01-30T03:36:57;13.48;;;6.05;;
25553;SDS011;13446;50.926;5.332;2024-01-30T03:39:22;13.77;;;6.22;;
25553;SDS011;13446;50.926;5.332;2024-01-30T03:41:48;11.13;;;6.40;;
25553;SDS011;13446;50.926;5.332;2024-01-30T03:44:14;11.73;;;5.78;;
25553;SDS011;13446;50.926;5.332;2024-01-30T03:46:40;11.02;;;5.55;;
25553;SDS011;13446;50.926;5.332;2024-01-30T03:49:06;10.88;;;5.90;;
25553;SDS011;13446;50.926;5.332;2024-01-30T03:51:31;8.73;;;5.35;;
25553;SDS011;13446;50.926;5.332;2024-01-30T03:53:57;11.65;;;5.57;;
25553;SDS011;13446;50.926;5.332;2024-01-30T03:56:23;8.05;;;5.63;;
25553;SDS011;13446;50.926;5.332;2024-01-30T03:58:50;7.70;;;5.60;;
25553;SDS011;13446;50.926;5.332;2024-01-30T04:01:16;9.05;;;5.85;;
25553;SDS011;13446;50.926;5.332;2024-01-30T04:03:42;12.18;;;5.82;;
25553;SDS011;13446;50.926;5.332;2024-01-30T04:06:09;7.93;;;5.43;;
25553;SDS011;13446;50.926;5.332;2024-01-30T04:08:35;11.70;;;6.00;;
25553;SDS011;13446;50.926;5.332;2024-01-30T04:11:05;8.07;;;5.93;;
25553;SDS011;13446;50.926;5.332;2024-01-30T04:13:31;12.03;;;5.80;;
25553;SDS011;13446;50.926;5.332;2024-01-30T04:16:01;11.10;;;5.70;;
25553;SDS011;13446;50.926;5.332;2024-01-30T04:18:29;12.07;;;5.30;;
25553;SDS011;13446;50.926;5.332;2024-01-30T04:20:55;10.50;;;6.20;;
25553;SDS011;13446;50.926;5.332;2024-01-30T04:23:22;9.65;;;5.80;;
25553;SDS011;13446;50.926;5.332;2024-01-30T04:25:47;12.82;;;5.93;;
25553;SDS011;13446;50.926;5.332;2024-01-30T04:28:13;7.60;;;5.70;;
25553;SDS011;13446;50.926;5.332;2024-01-30T04:30:41;7.88;;;5.70;;
25553;SDS011;13446;50.926;5.332;2024-01-30T04:40:36;11.77;;;6.25;;
25553;SDS011;13446;50.926;5.332;2024-01-30T04:43:03;6.85;;;5.15;;
25553;SDS011;13446;50.926;5.332;2024-01-30T04:45:28;12.85;;;6.32;;
25553;SDS011;13446;50.926;5.332;2024-01-30T04:47:54;11.80;;;6.38;;
25553;SDS011;13446;50.926;5.332;2024-01-30T04:50:20;8.30;;;6.03;;
25553;SDS011;13446;50.926;5.332;2024-01-30T04:52:46;8.68;;;5.47;;
25553;SDS011;13446;50.926;5.332;2024-01-30T04:55:11;8.20;;;5.85;;
25553;SDS011;13446;50.926;5.332;2024-01-30T04:57:37;10.90;;;5.68;;
25553;SDS011;13446;50.926;5.332;2024-01-30T05:00:03;12.40;;;6.35;;
25553;SDS011;13446;50.926;5.332;2024-01-30T05:02:30;10.75;;;6.32;;
25553;SDS011;13446;50.926;5.332;2024-01-30T05:04:56;8.48;;;5.85;;
25553;SDS011;13446;50.926;5.332;2024-01-30T05:07:22;8.32;;;5.55;;
25553;SDS011;13446;50.926;5.332;2024-01-30T05:09:50;8.57;;;5.55;;
25553;SDS011;13446;50.926;5.332;2024-01-30T05:12:16;10.02;;;5.78;;
25553;SDS011;13446;50.926;5.332;2024-01-30T05:14:41;11.77;;;5.95;;
25553;SDS011;13446;50.926;5.332;2024-01-30T05:17:07;10.98;;;6.47;;
25553;SDS011;13446;50.926;5.332;2024-01-30T05:19:35;10.63;;;5.60;;
25553;SDS011;13446;50.926;5.332;2024-01-30T05:22:01;10.25;;;5.70;;
25553;SDS011;13446;50.926;5.332;2024-01-30T05:24:26;10.65;;;6.10;;
25553;SDS011;13446;50.926;5.332;2024-01-30T05:26:55;9.85;;;6.28;;
25553;SDS011;13446;50.926;5.332;2024-01-30T05:29:21;13.85;;;5.95;;
25553;SDS011;13446;50.926;5.332;2024-01-30T05:31:47;10.10;;;6.22;;
25553;SDS011;13446;50.926;5.332;2024-01-30T05:34:12;9.18;;;6.30;;
25553;SDS011;13446;50.926;5.332;2024-01-30T05:36:39;12.70;;;6.60;;
25553;SDS011;13446;50.926;5.332;2024-01-30T05:39:04;7.28;;;5.30;;
25553;SDS011;13446;50.926;5.332;2024-01-30T05:41:30;9.65;;;5.65;;
25553;SDS011;13446;50.926;5.332;2024-01-30T05:43:56;9.65;;;6.25;;
25553;SDS011;13446;50.926;5.332;2024-01-30T05:46:21;8.45;;;5.35;;
25553;SDS011;13446;50.926;5.332;2024-01-30T05:48:47;10.93;;;5.95;;
25553;SDS011;13446;50.926;5.332;2024-01-30T05:51:13;12.80;;;5.75;;
25553;SDS011;13446;50.926;5.332;2024-01-30T05:53:39;9.05;;;6.20;;
25553;SDS011;13446;50.926;5.332;2024-01-30T05:56:04;10.48;;;6.10;;
25553;SDS011;13446;50.926;5.332;2024-01-30T05:58:30;9.38;;;5.90;;
25553;SDS011;13446;50.926;5.332;2024-01-30T06:00:56;13.98;;;6.18;;
25553;SDS011;13446;50.926;5.332;2024-01-30T06:03:22;12.27;;;6.60;;
25553;SDS011;13446;50.926;5.332;2024-01-30T06:05:48;10.15;;;6.30;;
25553;SDS011;13446;50.926;5.332;2024-01-30T06:08:14;10.50;;;5.93;;
25553;SDS011;13446;50.926;5.332;2024-01-30T06:10:40;11.70;;;6.00;;
25553;SDS011;13446;50.926;5.332;2024-01-30T06:13:07;8.85;;;5.90;;
25553;SDS011;13446;50.926;5.332;2024-01-30T06:15:42;9.20;;;5.75;;
25553;SDS011;13446;50.926;5.332;2024-01-30T06:18:07;9.25;;;6.30;;
25553;SDS011;13446;50.926;5.332;2024-01-30T06:20:33;13.93;;;5.80;;
25553;SDS011;13446;50.926;5.332;2024-01-30T06:22:59;7.72;;;5.70;;
25553;SDS011;13446;50.926;5.332;2024-01-30T06:25:26;11.82;;;5.78;;
25553;SDS011;13446;50.926;5.332;2024-01-30T06:27:52;8.52;;;5.97;;
25553;SDS011;13446;50.926;5.332;2024-01-30T06:30:18;10.35;;;6.40;;
25553;SDS011;13446;50.926;5.332;2024-01-30T06:32:44;8.00;;;5.32;;
25553;SDS011;13446;50.926;5.332;2024-01-30T06:35:09;10.27;;;5.93;;
25553;SDS011;13446;50.926;5.332;2024-01-30T06:37:38;11.25;;;6.30;;
25553;SDS011;13446;50.926;5.332;2024-01-30T06:40:04;13.18;;;6.47;;
25553;SDS011;13446;50.926;5.332;2024-01-30T06:42:30;11.00;;;6.35;;
25553;SDS011;13446;50.926;5.332;2024-01-30T06:44:56;9.93;;;6.25;;
25553;SDS011;13446;50.926;5.332;2024-01-30T06:47:22;12.02;;;6.32;;
25553;SDS011;13446;50.926;5.332;2024-01-30T06:49:47;10.05;;;6.72;;
25553;SDS011;13446;50.926;5.332;2024-01-30T06:52:13;15.50;;;6.53;;
25553;SDS011;13446;50.926;5.332;2024-01-30T06:54:39;11.57;;;7.20;;
25553;SDS011;13446;50.926;5.332;2024-01-30T06:57:05;15.95;;;6.65;;
25553;SDS011;13446;50.926;5.332;2024-01-30T06:59:36;10.25;;;6.80;;
25553;SDS011;13446;50.926;5.332;2024-01-30T07:02:02;10.05;;;6.25;;
25553;SDS011;13446;50.926;5.332;2024-01-30T07:04:28;9.70;;;6.43;;
25553;SDS011;13446;50.926;5.332;2024-01-30T07:06:53;12.10;;;6.20;;
25553;SDS011;13446;50.926;5.332;2024-01-30T07:09:20;12.60;;;6.30;;
25553;SDS011;13446;50.926;5.332;2024-01-30T07:11:46;12.30;;;6.53;;
25553;SDS011;13446;50.926;5.332;2024-01-30T07:14:11;12.27;;;6.65;;
25553;SDS011;13446;50.926;5.332;2024-01-30T07:16:37;10.48;;;6.32;;
25553;SDS011;13446;50.926;5.332;2024-01-30T07:19:04;9.45;;;6.10;;
25553;SDS011;13446;50.926;5.332;2024-01-30T07:21:30;11.80;;;6.53;;
25553;SDS011;13446;50.926;5.332;2024-01-30T07:23:55;10.43;;;6.50;;
25553;SDS011;13446;50.926;5.332;2024-01-30T07:26:21;14.48;;;6.75;;
25553;SDS011;13446;50.926;5.332;2024-01-30T07:28:47;17.88;;;7.07;;
25553;SDS011;13446;50.926;5.332;2024-01-30T07:31:13;12.65;;;6.20;;
25553;SDS011;13446;50.926;5.332;2024-01-30T07:33:40;12.77;;;7.20;;
25553;SDS011;13446;50.926;5.332;2024-01-30T07:36:06;12.18;;;6.65;;
25553;SDS011;13446;50.926;5.332;2024-01-30T07:38:32;11.35;;;6.88;;
25553;SDS011;13446;50.926;5.332;2024-01-30T07:40:57;13.48;;;6.93;;
25553;SDS011;13446;50.926;5.332;2024-01-30T07:43:23;14.50;;;7.20;;
25553;SDS011;13446;50.926;5.332;2024-01-30T07:45:52;13.25;;;7.30;;
25553;SDS011;13446;50.926;5.332;2024-01-30T07:48:18;10.30;;;6.95;;
25553;SDS011;13446;50.926;5.332;2024-01-30T07:50:44;16.33;;;7.32;;
25553;SDS011;13446;50.926;5.332;2024-01-30T07:53:09;12.27;;;6.43;;
25553;SDS011;13446;50.926;5.332;2024-01-30T07:55:35;14.15;;;7.15;;
25553;SDS011;13446;50.926;5.332;2024-01-30T07:58:01;12.77;;;6.45;;
25553;SDS011;13446;50.926;5.332;2024-01-30T08:00:28;9.43;;;6.82;;
25553;SDS011;13446;50.926;5.332;2024-01-30T08:05:55;12.32;;;6.72;;
25553;SDS011;13446;50.926;5.332;2024-01-30T08:08:22;11.30;;;6.70;;
25553;SDS011;13446;50.926;5.332;2024-01-30T08:10:48;10.10;;;6.43;;
25553;SDS011;13446;50.926;5.332;2024-01-30T08:13:14;13.32;;;6.57;;
25553;SDS011;13446;50.926;5.332;2024-01-30T08:15:40;11.68;;;6.80;;
25553;SDS011;13446;50.926;5.332;2024-01-30T08:18:06;11.32;;;6.60;;
25553;SDS011;13446;50.926;5.332;2024-01-30T08:20:32;10.95;;;6.78;;
25553;SDS011;13446;50.926;5.332;2024-01-30T08:22:58;10.32;;;6.50;;
25553;SDS011;13446;50.926;5.332;2024-01-30T08:25:25;11.48;;;6.40;;
25553;SDS011;13446;50.926;5.332;2024-01-30T08:27:51;9.93;;;6.65;;
25553;SDS011;13446;50.926;5.332;2024-01-30T08:30:17;13.63;;;6.60;;
25553;SDS011;13446;50.926;5.332;2024-01-30T08:32:43;10.82;;;5.90;;
25553;SDS011;13446;50.926;5.332;2024-01-30T08:35:08;12.65;;;6.22;;
25553;SDS011;13446;50.926;5.332;2024-01-30T08:37:38;11.18;;;6.25;;
25553;SDS011;13446;50.926;5.332;2024-01-30T08:40:04;10.45;;;6.13;;
25553;SDS011;13446;50.926;5.332;2024-01-30T08:42:31;9.45;;;5.93;;
25553;SDS011;13446;50.926;5.332;2024-01-30T08:44:56;9.85;;;6.07;;
25553;SDS011;13446;50.926;5.332;2024-01-30T08:47:22;10.65;;;6.47;;
25553;SDS011;13446;50.926;5.332;2024-01-30T08:49:50;13.60;;;6.18;;
25553;SDS011;13446;50.926;5.332;2024-01-30T08:52:16;7.72;;;5.57;;
25553;SDS011;13446;50.926;5.332;2024-01-30T08:54:42;9.18;;;6.28;;
25553;SDS011;13446;50.926;5.332;2024-01-30T08:57:09;11.07;;;6.35;;
25553;SDS011;13446;50.926;5.332;2024-01-30T08:59:35;12.38;;;6.75;;
25553;SDS011;13446;50.926;5.332;2024-01-30T09:02:07;15.20;;;6.78;;
25553;SDS011;13446;50.926;5.332;2024-01-30T09:05:10;11.68;;;6.28;;
25553;SDS011;13446;50.926;5.332;2024-01-30T09:08:19;12.57;;;6.70;;
25553;SDS011;13446;50.926;5.332;2024-01-30T09:11:30;11.20;;;6.30;;
25553;SDS011;13446;50.926;5.332;2024-01-30T09:14:16;10.18;;;6.13;;
25553;SDS011;13446;50.926;5.332;2024-01-30T09:16:42;9.75;;;6.32;;
25553;SDS011;13446;50.926;5.332;2024-01-30T09:19:08;14.43;;;6.45;;
25553;SDS011;13446;50.926;5.332;2024-01-30T09:21:34;13.55;;;6.82;;
25553;SDS011;13446;50.926;5.332;2024-01-30T09:24:03;15.77;;;6.88;;
25553;SDS011;13446;50.926;5.332;2024-01-30T09:29:01;13.80;;;6.45;;
25553;SDS011;13446;50.926;5.332;2024-01-30T09:31:27;11.82;;;6.25;;
25553;SDS011;13446;50.926;5.332;2024-01-30T09:33:54;18.00;;;6.80;;
25553;SDS011;13446;50.926;5.332;2024-01-30T09:36:21;16.83;;;6.65;;
25553;SDS011;13446;50.926;5.332;2024-01-30T09:38:47;12.82;;;6.85;;
25553;SDS011;13446;50.926;5.332;2024-01-30T09:41:12;12.55;;;6.20;;
25553;SDS011;13446;50.926;5.332;2024-01-30T09:43:39;11.25;;;6.25;;
25553;SDS011;13446;50.926;5.332;2024-01-30T09:46:06;18.33;;;6.68;;
25553;SDS011;13446;50.926;5.332;2024-01-30T09:48:37;12.57;;;6.53;;
25553;SDS011;13446;50.926;5.332;2024-01-30T09:51:11;13.57;;;6.15;;
25553;SDS011;13446;50.926;5.332;2024-01-30T09:53:37;13.88;;;6.38;;
25553;SDS011;13446;50.926;5.332;2024-01-30T09:56:04;11.20;;;6.30;;
25553;SDS011;13446;50.926;5.332;2024-01-30T09:58:31;11.27;;;6.65;;
25553;SDS011;13446;50.926;5.332;2024-01-30T10:00:56;12.25;;;6.57;;
25553;SDS011;13446;50.926;5.332;2024-01-30T10:03:22;15.05;;;6.50;;
25553;SDS011;13446;50.926;5.332;2024-01-30T10:05:51;14.75;;;6.90;;
25553;SDS011;13446;50.926;5.332;2024-01-30T10:08:21;13.32;;;6.82;;
25553;SDS011;13446;50.926;5.332;2024-01-30T10:10:48;14.18;;;7.53;;
25553;SDS011;13446;50.926;5.332;2024-01-30T10:13:15;15.60;;;6.95;;
25553;SDS011;13446;50.926;5.332;2024-01-30T10:15:41;13.80;;;6.88;;
25553;SDS011;13446;50.926;5.332;2024-01-30T10:18:10;13.63;;;6.68;;
25553;SDS011;13446;50.926;5.332;2024-01-30T10:20:36;14.90;;;6.75;;
25553;SDS011;13446;50.926;5.332;2024-01-30T10:23:02;13.85;;;6.60;;
25553;SDS011;13446;50.926;5.332;2024-01-30T10:25:28;13.27;;;6.43;;
25553;SDS011;13446;50.926;5.332;2024-01-30T10:27:56;15.95;;;7.00;;
25553;SDS011;13446;50.926;5.332;2024-01-30T10:30:23;14.13;;;7.40;;
25553;SDS011;13446;50.926;5.332;2024-01-30T10:32:50;12.38;;;7.20;;
25553;SDS011;13446;50.926;5.332;2024-01-30T10:35:16;18.08;;;7.60;;
25553;SDS011;13446;50.926;5.332;2024-01-30T10:37:48;17.55;;;7.43;;
25553;SDS011;13446;50.926;5.332;2024-01-30T10:40:14;14.82;;;7.63;;
25553;SDS011;13446;50.926;5.332;2024-01-30T10:42:44;16.42;;;7.57;;
25553;SDS011;13446;50.926;5.332;2024-01-30T10:45:12;16.98;;;7.40;;
25553;SDS011;13446;50.926;5.332;2024-01-30T10:47:48;15.10;;;7.70;;
25553;SDS011;13446;50.926;5.332;2024-01-30T10:50:16;14.55;;;7.40;;
25553;SDS011;13446;50.926;5.332;2024-01-30T10:52:42;19.25;;;8.07;;
25553;SDS011;13446;50.926;5.332;2024-01-30T10:55:08;19.67;;;8.20;;
25553;SDS011;13446;50.926;5.332;2024-01-30T10:57:35;18.02;;;7.93;;
25553;SDS011;13446;50.926;5.332;2024-01-30T11:00:03;15.57;;;7.82;;
25553;SDS011;13446;50.926;5.332;2024-01-30T11:02:37;18.00;;;7.85;;
25553;SDS011;13446;50.926;5.332;2024-01-30T11:05:09;15.85;;;8.23;;
25553;SDS011;13446;50.926;5.332;2024-01-30T11:07:35;20.05;;;9.15;;
25553;SDS011;13446;50.926;5.332;2024-01-30T11:10:04;20.20;;;8.32;;
25553;SDS011;13446;50.926;5.332;2024-01-30T11:12:31;19.33;;;8.43;;
25553;SDS011;13446;50.926;5.332;2024-01-30T11:15:04;25.30;;;10.07;;
25553;SDS011;13446;50.926;5.332;2024-01-30T11:20:16;17.60;;;8.43;;
25553;SDS011;13446;50.926;5.332;2024-01-30T11:22:46;15.95;;;7.93;;
25553;SDS011;13446;50.926;5.332;2024-01-30T11:25:13;21.50;;;8.75;;
25553;SDS011;13446;50.926;5.332;2024-01-30T11:27:39;17.80;;;9.02;;
25553;SDS011;13446;50.926;5.332;2024-01-30T11:30:06;18.65;;;8.35;;
25553;SDS011;13446;50.926;5.332;2024-01-30T11:32:33;17.52;;;8.57;;
25553;SDS011;13446;50.926;5.332;2024-01-30T11:34:58;21.75;;;9.85;;
25553;SDS011;13446;50.926;5.332;2024-01-30T11:37:27;22.17;;;8.95;;
25553;SDS011;13446;50.926;5.332;2024-01-30T11:39:56;20.17;;;8.88;;
25553;SDS011;13446;50.926;5.332;2024-01-30T11:42:25;20.08;;;9.60;;
25553;SDS011;13446;50.926;5.332;2024-01-30T11:44:52;22.40;;;9.45;;
25553;SDS011;13446;50.926;5.332;2024-01-30T11:47:34;23.40;;;8.95;;
25553;SDS011;13446;50.926;5.332;2024-01-30T11:50:02;25.38;;;9.52;;
25553;SDS011;13446;50.926;5.332;2024-01-30T11:52:31;22.55;;;9.88;;
25553;SDS011;13446;50.926;5.332;2024-01-30T11:54:58;17.45;;;8.90;;
25553;SDS011;13446;50.926;5.332;2024-01-30T11:57:28;18.63;;;8.73;;
25553;SDS011;13446;50.926;5.332;2024-01-30T11:59:54;22.33;;;9.77;;
25553;SDS011;13446;50.926;5.332;2024-01-30T12:02:20;19.48;;;9.30;;
25553;SDS011;13446;50.926;5.332;2024-01-30T12:04:46;18.83;;;10.27;;
25553;SDS011;13446;50.926;5.332;2024-01-30T12:07:15;19.10;;;10.38;;
25553;SDS011;13446;50.926;5.332;2024-01-30T12:09:55;23.75;;;10.13;;
25553;SDS011;13446;50.926;5.332;2024-01-30T12:12:39;21.25;;;10.02;;
25553;SDS011;13446;50.926;5.332;2024-01-30T12:15:07;17.30;;;9.50;;
25553;SDS011;13446;50.926;5.332;2024-01-30T12:17:33;26.33;;;10.05;;
25553;SDS011;13446;50.926;5.332;2024-01-30T12:20:13;25.33;;;10.35;;
25553;SDS011;13446;50.926;5.332;2024-01-30T12:22:41;18.73;;;9.23;;
25553;SDS011;13446;50.926;5.332;2024-01-30T12:25:14;22.50;;;9.90;;
25553;SDS011;13446;50.926;5.332;2024-01-30T12:27:46;21.05;;;9.77;;
25553;SDS011;13446;50.926;5.332;2024-01-30T12:30:16;21.55;;;10.05;;
25553;SDS011;13446;50.926;5.332;2024-01-30T12:32:45;25.30;;;9.98;;
25553;SDS011;13446;50.926;5.332;2024-01-30T12:35:13;27.42;;;9.93;;
25553;SDS011;13446;50.926;5.332;2024-01-30T12:37:39;23.92;;;10.13;;
25553;SDS011;13446;50.926;5.332;2024-01-30T12:40:07;23.52;;;10.13;;
25553;SDS011;13446;50.926;5.332;2024-01-30T12:42:34;23.75;;;9.02;;
25553;SDS011;13446;50.926;5.332;2024-01-30T12:45:03;18.98;;;9.73;;
25553;SDS011;13446;50.926;5.332;2024-01-30T12:47:30;20.05;;;8.75;;
25553;SDS011;13446;50.926;5.332;2024-01-30T12:49:56;32.70;;;9.57;;
25553;SDS011;13446;50.926;5.332;2024-01-30T12:52:22;16.58;;;7.30;;
25553;SDS011;13446;50.926;5.332;2024-01-30T12:54:48;14.32;;;6.22;;
25553;SDS011;13446;50.926;5.332;2024-01-30T12:57:15;11.90;;;5.25;;
25553;SDS011;13446;50.926;5.332;2024-01-30T12:59:41;11.73;;;4.82;;
25553;SDS011;13446;50.926;5.332;2024-01-30T13:02:08;12.05;;;4.53;;
25553;SDS011;13446;50.926;5.332;2024-01-30T13:04:34;9.77;;;3.67;;
25553;SDS011;13446;50.926;5.332;2024-01-30T13:07:00;8.27;;;3.60;;
25553;SDS011;13446;50.926;5.332;2024-01-30T13:09:26;8.02;;;3.40;;
25553;SDS011;13446;50.926;5.332;2024-01-30T13:11:52;8.30;;;3.40;;
25553;SDS011;13446;50.926;5.332;2024-01-30T13:14:18;5.25;;;2.90;;
25553;SDS011;13446;50.926;5.332;2024-01-30T13:16:44;8.02;;;3.28;;
25553;SDS011;13446;50.926;5.332;2024-01-30T13:19:10;8.68;;;3.22;;
25553;SDS011;13446;50.926;5.332;2024-01-30T13:21:36;9.25;;;2.67;;
25553;SDS011;13446;50.926;5.332;2024-01-30T13:24:02;6.13;;;2.85;;
25553;SDS011;13446;50.926;5.332;2024-01-30T13:26:28;7.07;;;2.40;;
25553;SDS011;13446;50.926;5.332;2024-01-30T13:28:56;5.72;;;2.17;;
25553;SDS011;13446;50.926;5.332;2024-01-30T13:31:21;4.70;;;1.80;;
25553;SDS011;13446;50.926;5.332;2024-01-30T13:33:47;5.20;;;1.65;;
25553;SDS011;13446;50.926;5.332;2024-01-30T13:36:14;5.35;;;2.10;;
25553;SDS011;13446;50.926;5.332;2024-01-30T13:38:52;9.50;;;1.80;;
25553;SDS011;13446;50.926;5.332;2024-01-30T13:41:39;4.18;;;1.80;;
25553;SDS011;13446;50.926;5.332;2024-01-30T13:44:19;5.27;;;1.57;;
25553;SDS011;13446;50.926;5.332;2024-01-30T13:46:58;6.22;;;1.73;;
25553;SDS011;13446;50.926;5.332;2024-01-30T13:49:30;6.03;;;1.35;;
25553;SDS011;13446;50.926;5.332;2024-01-30T13:51:56;3.35;;;1.33;;
25553;SDS011;13446;50.926;5.332;2024-01-30T14:00:15;3.60;;;1.50;;
25553;SDS011;13446;50.926;5.332;2024-01-30T14:05:50;3.08;;;0.73;;
25553;SDS011;13446;50.926;5.332;2024-01-30T14:08:21;5.53;;;0.93;;
25553;SDS011;13446;50.926;5.332;2024-01-30T14:11:07;5.95;;;0.80;;
25553;SDS011;13446;50.926;5.332;2024-01-30T14:13:33;1.75;;;0.68;;
25553;SDS011;13446;50.926;5.332;2024-01-30T14:16:14;2.55;;;0.57;;
25553;SDS011;13446;50.926;5.332;2024-01-30T14:18:51;4.00;;;0.70;;
25553;SDS011;13446;50.926;5.332;2024-01-30T14:21:22;4.93;;;0.60;;
25553;SDS011;13446;50.926;5.332;2024-01-30T14:23:58;2.45;;;0.80;;
25553;SDS011;13446;50.926;5.332;2024-01-30T14:26:32;3.03;;;0.55;;
25553;SDS011;13446;50.926;5.332;2024-01-30T14:32:27;2.58;;;0.50;;
25553;SDS011;13446;50.926;5.332;2024-01-30T14:34:59;1.48;;;0.60;;
25553;SDS011;13446;50.926;5.332;2024-01-30T14:37:26;2.17;;;0.70;;
25553;SDS011;13446;50.926;5.332;2024-01-30T14:40:01;5.30;;;0.80;;
25553;SDS011;13446;50.926;5.332;2024-01-30T14:45:05;1.92;;;0.80;;
25553;SDS011;13446;50.926;5.332;2024-01-30T14:47:35;7.20;;;0.55;;
25553;SDS011;13446;50.926;5.332;2024-01-30T14:50:12;4.13;;;1.23;;
25553;SDS011;13446;50.926;5.332;2024-01-30T15:00:35;5.97;;;0.90;;
25553;SDS011;13446;50.926;5.332;2024-01-30T15:03:19;5.65;;;0.85;;
25553;SDS011;13446;50.926;5.332;2024-01-30T15:05:50;8.38;;;1.10;;
25553;SDS011;13446;50.926;5.332;2024-01-30T15:08:41;6.13;;;0.88;;
25553;SDS011;13446;50.926;5.332;2024-01-30T15:29:28;8.05;;;1.30;;
25553;SDS011;13446;50.926;5.332;2024-01-30T15:31:54;7.30;;;1.15;;
25553;SDS011;13446;50.926;5.332;2024-01-30T15:34:19;2.45;;;0.93;;
25553;SDS011;13446;50.926;5.332;2024-01-30T15:39:23;4.13;;;0.88;;
25553;SDS011;13446;50.926;5.332;2024-01-30T15:41:57;5.47;;;1.00;;